createdAt,value
2022-08-23T00:01:25.288Z,20.41
2022-08-23T00:03:54.951Z,20.41
2022-08-23T00:06:24.832Z,20.41
2022-08-23T00:08:54.260Z,20.40
2022-08-23T00:11:28.751Z,20.39
2022-08-23T00:13:56.955Z,20.35
2022-08-23T00:16:26.558Z,20.37
2022-08-23T00:18:54.725Z,20.39
2022-08-23T00:21:23.370Z,20.41
2022-08-23T00:23:51.398Z,20.44
2022-08-23T00:26:20.688Z,20.48
2022-08-23T00:28:49.279Z,20.48
2022-08-23T00:31:17.695Z,20.48
2022-08-23T00:33:47.420Z,20.50
2022-08-23T00:36:15.629Z,20.51
2022-08-23T00:38:43.564Z,20.50
2022-08-23T00:41:11.591Z,20.51
2022-08-23T00:44:00.236Z,20.50
2022-08-23T00:47:01.271Z,20.49
2022-08-23T00:49:32.417Z,20.48
2022-08-23T00:52:07.222Z,20.46
2022-08-23T00:54:37.750Z,20.46
2022-08-23T00:57:10.258Z,20.42
2022-08-23T00:59:38.612Z,20.41
2022-08-23T01:02:07.848Z,20.40
2022-08-23T01:04:41.644Z,20.40
2022-08-23T01:07:17.064Z,20.38
2022-08-23T01:09:48.637Z,20.38
2022-08-23T01:12:32.631Z,20.37
2022-08-23T01:15:06.185Z,20.35
2022-08-23T01:17:39.482Z,20.34
2022-08-23T01:20:13.828Z,20.34
2022-08-23T01:22:49.779Z,20.33
2022-08-23T01:25:23.631Z,20.30
2022-08-23T01:27:52.197Z,20.31
2022-08-23T01:30:24.218Z,20.29
2022-08-23T01:32:56.384Z,20.29
2022-08-23T01:35:31.210Z,20.29
2022-08-23T01:37:59.233Z,20.28
2022-08-23T01:40:32.696Z,20.28
2022-08-23T01:43:02.041Z,20.28
2022-08-23T01:45:31.629Z,20.25
2022-08-23T01:48:00.329Z,20.23
2022-08-23T01:50:30.083Z,20.23
2022-08-23T01:52:58.407Z,20.21
2022-08-23T01:55:29.417Z,20.21
2022-08-23T01:58:01.141Z,20.19
2022-08-23T02:00:34.087Z,20.20
2022-08-23T02:03:02.726Z,20.20
2022-08-23T02:05:32.928Z,20.18
2022-08-23T02:08:22.120Z,20.18
2022-08-23T02:10:53.380Z,20.17
2022-08-23T02:13:21.940Z,20.13
2022-08-23T02:15:51.559Z,20.10
2022-08-23T02:18:21.519Z,20.07
2022-08-23T02:20:52.403Z,20.09
2022-08-23T02:23:21.913Z,20.12
2022-08-23T02:25:50.429Z,20.13
2022-08-23T02:28:20.689Z,20.12
2022-08-23T02:30:48.833Z,20.11
2022-08-23T02:33:18.712Z,20.09
2022-08-23T02:35:49.194Z,20.09
2022-08-23T02:38:18.911Z,20.09
2022-08-23T02:40:53.052Z,20.10
2022-08-23T02:43:31.076Z,20.09
2022-08-23T02:46:01.725Z,20.07
2022-08-23T02:48:32.525Z,20.07
2022-08-23T02:51:07.153Z,20.05
2022-08-23T02:53:35.776Z,20.03
2022-08-23T02:56:21.141Z,20.03
2022-08-23T02:58:54.341Z,20.00
2022-08-23T03:01:26.168Z,20.01
2022-08-23T03:03:57.080Z,19.96
2022-08-23T03:06:26.625Z,19.96
2022-08-23T03:08:55.310Z,19.96
2022-08-23T03:11:25.198Z,19.97
2022-08-23T03:13:56.929Z,19.94
2022-08-23T03:16:25.860Z,19.96
2022-08-23T03:18:54.711Z,19.95
2022-08-23T03:21:23.020Z,19.93
2022-08-23T03:23:51.524Z,19.92
2022-08-23T03:26:19.973Z,19.91
2022-08-23T03:28:48.972Z,19.91
2022-08-23T03:31:20.620Z,19.91
2022-08-23T03:33:58.162Z,19.92
2022-08-23T03:36:27.869Z,19.92
2022-08-23T03:38:57.281Z,19.88
2022-08-23T03:41:26.237Z,19.88
2022-08-23T03:43:54.359Z,19.87
2022-08-23T03:46:24.525Z,19.87
2022-08-23T03:49:00.513Z,19.86
2022-08-23T03:51:35.414Z,19.84
2022-08-23T03:54:04.455Z,19.85
2022-08-23T03:56:35.268Z,19.86
2022-08-23T03:59:06.685Z,19.86
2022-08-23T04:01:36.682Z,19.85
2022-08-23T04:04:05.590Z,19.84
2022-08-23T04:06:38.209Z,19.82
2022-08-23T04:09:15.184Z,19.80
2022-08-23T04:11:44.319Z,19.79
2022-08-23T04:14:16.060Z,19.79
2022-08-23T04:16:45.632Z,19.78
2022-08-23T04:19:16.072Z,19.78
2022-08-23T04:21:58.976Z,19.77
2022-08-23T04:24:31.663Z,19.75
2022-08-23T04:26:59.721Z,19.77
2022-08-23T04:29:34.419Z,19.76
2022-08-23T04:32:07.842Z,19.78
2022-08-23T04:34:45.349Z,19.81
2022-08-23T04:37:17.996Z,19.82
2022-08-23T04:40:04.015Z,19.81
2022-08-23T04:42:41.776Z,19.82
2022-08-23T04:45:11.689Z,19.84
2022-08-23T04:47:46.286Z,19.82
2022-08-23T04:50:15.017Z,19.82
2022-08-23T04:53:08.675Z,19.84
2022-08-23T04:55:43.359Z,19.81
2022-08-23T04:58:14.418Z,19.80
2022-08-23T05:00:51.191Z,19.81
2022-08-23T05:03:24.310Z,19.80
2022-08-23T05:05:53.884Z,19.83
2022-08-23T05:08:26.449Z,19.83
2022-08-23T05:10:55.317Z,19.85
2022-08-23T05:13:25.728Z,19.86
2022-08-23T05:15:54.389Z,19.87
2022-08-23T05:18:28.522Z,19.87
2022-08-23T05:20:56.855Z,19.89
2022-08-23T05:23:32.068Z,19.89
2022-08-23T05:26:15.429Z,19.92
2022-08-23T05:28:45.369Z,19.97
2022-08-23T05:31:18.745Z,20.00
2022-08-23T05:33:57.275Z,20.02
2022-08-23T05:36:55.682Z,20.05
2022-08-23T05:39:36.156Z,20.07
2022-08-23T05:42:08.386Z,20.05
2022-08-23T05:44:37.388Z,20.05
2022-08-23T05:47:11.169Z,20.04
2022-08-23T05:50:01.871Z,20.04
2022-08-23T05:52:33.522Z,20.04
2022-08-23T05:55:02.146Z,20.07
2022-08-23T05:57:43.119Z,20.10
2022-08-23T06:00:14.871Z,20.15
2022-08-23T06:02:53.717Z,20.18
2022-08-23T06:05:23.852Z,20.20
2022-08-23T06:07:52.679Z,20.24
2022-08-23T06:10:24.251Z,20.31
2022-08-23T06:13:00.068Z,20.35
2022-08-23T06:15:34.460Z,20.37
2022-08-23T06:18:03.303Z,20.41
2022-08-23T06:20:33.690Z,20.48
2022-08-23T06:23:08.113Z,20.52
2022-08-23T06:25:38.471Z,20.58
2022-08-23T06:28:17.479Z,20.61
2022-08-23T06:30:45.618Z,20.69
2022-08-23T06:33:14.814Z,20.74
2022-08-23T06:35:54.361Z,20.77
2022-08-23T06:38:28.441Z,20.80
2022-08-23T06:41:17.108Z,20.85
2022-08-23T06:44:04.152Z,20.89
2022-08-23T06:46:34.501Z,20.95
2022-08-23T06:49:05.626Z,20.99
2022-08-23T06:51:37.160Z,21.06
2022-08-23T06:54:17.443Z,21.13
2022-08-23T06:57:02.796Z,21.19
2022-08-23T06:59:34.265Z,21.25
2022-08-23T07:02:16.981Z,21.24
2022-08-23T07:05:00.236Z,21.32
2022-08-23T07:07:50.763Z,21.38
2022-08-23T07:10:19.988Z,21.41
2022-08-23T07:12:49.840Z,21.43
2022-08-23T07:15:21.213Z,21.45
2022-08-23T07:17:53.380Z,21.44
2022-08-23T07:20:25.402Z,21.52
2022-08-23T07:22:54.715Z,21.59
2022-08-23T07:25:31.188Z,21.65
2022-08-23T07:28:07.488Z,21.73
2022-08-23T07:30:44.972Z,21.81
2022-08-23T07:33:16.718Z,21.83
2022-08-23T07:36:10.437Z,21.85
2022-08-23T07:38:40.308Z,21.88
2022-08-23T07:41:08.665Z,21.89
2022-08-23T07:43:37.698Z,21.95
2022-08-23T07:46:07.990Z,22.01
2022-08-23T07:48:53.405Z,22.03
2022-08-23T07:51:26.865Z,22.06
2022-08-23T07:54:00.143Z,22.08
2022-08-23T07:56:29.293Z,22.12
2022-08-23T07:59:09.150Z,22.17
2022-08-23T08:01:57.067Z,22.24
2022-08-23T08:04:26.472Z,22.23
2022-08-23T08:07:17.722Z,22.26
2022-08-23T08:09:48.232Z,22.31
2022-08-23T08:12:19.597Z,22.34
2022-08-23T08:14:50.559Z,22.37
2022-08-23T08:17:27.287Z,22.39
2022-08-23T08:20:20.408Z,22.47
2022-08-23T08:23:18.110Z,22.56
2022-08-23T08:26:28.635Z,22.68
2022-08-23T08:29:01.502Z,22.74
2022-08-23T08:31:30.586Z,22.78
2022-08-23T08:33:58.984Z,22.81
2022-08-23T08:36:36.423Z,22.85
2022-08-23T08:39:10.504Z,22.92
2022-08-23T08:44:41.951Z,22.96
2022-08-23T08:47:16.806Z,22.98
2022-08-23T08:49:50.488Z,22.98
2022-08-23T08:52:31.086Z,23.05
2022-08-23T08:55:06.777Z,23.14
2022-08-23T08:57:40.575Z,23.18
2022-08-23T09:00:14.039Z,23.22
2022-08-23T09:02:45.192Z,23.26
2022-08-23T09:05:17.116Z,23.18
2022-08-23T09:07:58.122Z,23.20
2022-08-23T09:10:58.368Z,23.19
2022-08-23T09:14:06.845Z,23.24
2022-08-23T09:16:49.046Z,23.27
2022-08-23T09:19:17.785Z,23.26
2022-08-23T09:21:49.948Z,23.25
2022-08-23T09:24:17.937Z,23.25
2022-08-23T09:26:56.482Z,23.25
2022-08-23T09:29:28.678Z,23.29
2022-08-23T09:32:03.273Z,23.37
2022-08-23T09:34:43.637Z,23.42
2022-08-23T09:37:19.095Z,23.53
2022-08-23T09:39:52.683Z,23.60
2022-08-23T09:42:36.827Z,23.59
2022-08-23T09:45:10.830Z,23.60
2022-08-23T09:47:44.443Z,23.59
2022-08-23T09:50:25.554Z,23.63
2022-08-23T09:52:59.381Z,23.63
2022-08-23T09:55:33.083Z,23.65
2022-08-23T09:58:03.496Z,23.67
2022-08-23T10:00:34.124Z,23.70
2022-08-23T10:03:29.124Z,23.69
2022-08-23T10:06:06.376Z,23.60
2022-08-23T10:08:43.225Z,23.57
2022-08-23T10:11:18.609Z,23.52
2022-08-23T10:13:51.534Z,23.54
2022-08-23T10:16:34.671Z,23.56
2022-08-23T10:19:24.509Z,23.59
2022-08-23T10:21:59.248Z,23.63
2022-08-23T10:24:42.246Z,23.69
2022-08-23T10:27:43.661Z,23.77
2022-08-23T10:30:14.668Z,23.76
2022-08-23T10:33:03.989Z,23.74
2022-08-23T10:35:53.766Z,23.76
2022-08-23T10:38:40.461Z,23.81
2022-08-23T10:41:35.123Z,23.87
2022-08-23T10:44:24.133Z,23.96
2022-08-23T10:47:03.595Z,23.99
2022-08-23T10:49:35.475Z,24.08
2022-08-23T10:52:14.466Z,24.16
2022-08-23T10:54:59.708Z,24.26
2022-08-23T10:57:35.626Z,24.28
2022-08-23T11:00:15.987Z,24.36
2022-08-23T11:02:57.345Z,24.44
2022-08-23T11:05:32.124Z,24.46
2022-08-23T11:08:09.332Z,24.47
2022-08-23T11:10:53.806Z,24.55
2022-08-23T11:13:35.379Z,24.67
2022-08-23T11:16:14.666Z,24.72
2022-08-23T11:18:47.887Z,24.73
2022-08-23T11:21:52.738Z,24.79
2022-08-23T11:24:50.474Z,24.88
2022-08-23T11:27:37.248Z,24.83
2022-08-23T11:30:47.411Z,24.82
2022-08-23T11:33:23.964Z,24.93
2022-08-23T11:35:56.678Z,25.00
2022-08-23T11:39:02.535Z,25.04
2022-08-23T11:41:35.420Z,25.03
2022-08-23T11:44:28.565Z,24.96
2022-08-23T11:47:06.711Z,24.98
2022-08-23T11:50:07.119Z,24.99
2022-08-23T11:52:59.764Z,24.97
2022-08-23T11:55:59.234Z,25.05
2022-08-23T11:58:47.666Z,25.15
2022-08-23T12:01:21.196Z,25.13
2022-08-23T12:03:58.833Z,25.04
2022-08-23T12:06:42.742Z,25.06
2022-08-23T12:09:55.573Z,25.09
2022-08-23T12:12:39.220Z,25.10
2022-08-23T12:15:14.514Z,25.09
2022-08-23T12:18:19.244Z,25.06
2022-08-23T12:20:51.921Z,25.07
2022-08-23T12:23:22.271Z,25.04
2022-08-23T12:26:10.054Z,25.07
2022-08-23T12:28:51.560Z,25.14
2022-08-23T12:31:36.521Z,25.24
2022-08-23T12:34:24.309Z,25.41
2022-08-23T12:37:03.807Z,25.56
2022-08-23T12:39:41.117Z,25.66
2022-08-23T12:42:16.469Z,25.73
2022-08-23T12:44:47.977Z,25.82
2022-08-23T12:47:42.840Z,25.82
2022-08-23T12:50:28.630Z,25.71
2022-08-23T12:53:09.691Z,25.61
2022-08-23T12:55:57.201Z,25.64
2022-08-23T12:58:33.659Z,25.65
2022-08-23T13:01:10.370Z,25.64
2022-08-23T13:03:49.956Z,25.63
2022-08-23T13:06:25.679Z,25.70
2022-08-23T13:09:00.271Z,25.82
2022-08-23T13:11:35.776Z,25.95
2022-08-23T13:14:26.032Z,25.97
2022-08-23T13:17:13.057Z,26.01
2022-08-23T13:19:42.749Z,26.02
2022-08-23T13:22:12.838Z,25.94
2022-08-23T13:24:43.057Z,25.95
2022-08-23T13:27:22.570Z,26.06
2022-08-23T13:29:53.168Z,26.18
2022-08-23T13:32:40.295Z,26.32
2022-08-23T13:35:36.087Z,26.40
2022-08-23T13:38:20.568Z,26.47
2022-08-23T13:40:57.412Z,26.56
2022-08-23T13:43:28.518Z,26.71
2022-08-23T13:45:59.441Z,26.69
2022-08-23T13:48:31.111Z,26.73
2022-08-23T13:51:29.290Z,26.79
2022-08-23T13:53:59.135Z,26.81
2022-08-23T13:56:29.145Z,26.81
2022-08-23T13:59:01.131Z,26.85
2022-08-23T14:01:30.464Z,26.86
2022-08-23T14:03:58.420Z,26.92
2022-08-23T14:06:26.421Z,26.95
2022-08-23T14:08:55.719Z,26.85
2022-08-23T14:11:23.734Z,26.85
2022-08-23T14:13:52.127Z,26.92
2022-08-23T14:16:35.237Z,26.99
2022-08-23T14:19:16.812Z,27.09
2022-08-23T14:21:56.971Z,27.16
2022-08-23T14:24:27.311Z,27.20
2022-08-23T14:26:56.594Z,27.20
2022-08-23T14:29:27.953Z,27.20
2022-08-23T14:31:57.666Z,27.26
2022-08-23T14:34:26.369Z,27.22
2022-08-23T14:39:43.897Z,27.29
2022-08-23T14:42:14.275Z,27.31
2022-08-23T14:44:42.711Z,27.29
2022-08-23T14:47:10.447Z,27.33
2022-08-23T14:49:38.634Z,27.32
2022-08-23T14:52:06.831Z,27.30
2022-08-23T14:54:35.548Z,27.28
2022-08-23T14:57:05.300Z,27.24
2022-08-23T14:59:33.512Z,27.20
2022-08-23T15:02:01.862Z,27.15
2022-08-23T15:04:30.418Z,27.10
2022-08-23T15:07:19.459Z,27.08
2022-08-23T15:09:48.701Z,27.07
2022-08-23T15:15:09.574Z,26.96
2022-08-23T15:17:48.008Z,26.96
2022-08-23T15:20:16.794Z,26.96
2022-08-23T15:22:55.257Z,26.96
2022-08-23T15:25:25.212Z,26.94
2022-08-23T15:27:54.488Z,26.90
2022-08-23T15:30:24.058Z,26.84
2022-08-23T15:32:56.516Z,26.75
2022-08-23T15:35:25.318Z,26.75
2022-08-23T15:37:54.543Z,26.74
2022-08-23T15:40:22.746Z,26.73
2022-08-23T15:42:50.679Z,26.64
2022-08-23T15:45:19.824Z,26.56
2022-08-23T15:47:51.611Z,26.47
2022-08-23T15:50:22.189Z,26.43
2022-08-23T15:52:50.798Z,26.46
2022-08-23T15:55:19.409Z,26.46
2022-08-23T15:57:49.474Z,26.49
2022-08-23T16:00:22.645Z,26.51
2022-08-23T16:03:18.776Z,26.50
2022-08-23T16:05:42.442Z,26.48
2022-08-23T16:08:18.518Z,26.48
2022-08-23T16:10:46.905Z,26.45
2022-08-23T16:13:15.097Z,26.44
2022-08-23T16:15:44.347Z,26.38
2022-08-23T16:18:12.196Z,26.36
2022-08-23T16:20:40.308Z,26.38
2022-08-23T16:23:08.710Z,26.37
2022-08-23T16:25:37.096Z,26.36
2022-08-23T16:28:05.573Z,26.33
2022-08-23T16:30:33.259Z,26.31
2022-08-23T16:33:03.077Z,26.26
2022-08-23T16:35:31.101Z,26.25
2022-08-23T16:37:58.837Z,26.23
2022-08-23T16:40:27.025Z,26.20
2022-08-23T16:42:56.352Z,26.14
2022-08-23T16:45:26.088Z,26.10
2022-08-23T16:47:55.304Z,26.07
2022-08-23T16:50:24.491Z,26.05
2022-08-23T16:52:52.497Z,26.02
2022-08-23T16:55:21.424Z,26.00
2022-08-23T16:57:49.268Z,25.99
2022-08-23T17:00:18.062Z,25.97
2022-08-23T17:02:47.177Z,25.92
2022-08-23T17:05:18.501Z,25.91
2022-08-23T17:07:49.255Z,25.87
2022-08-23T17:10:19.626Z,25.86
2022-08-23T17:12:50.708Z,25.81
2022-08-23T17:15:23.489Z,25.78
2022-08-23T17:17:51.679Z,25.73
2022-08-23T17:20:22.783Z,25.72
2022-08-23T17:22:52.510Z,25.69
2022-08-23T17:25:20.811Z,25.65
2022-08-23T17:27:50.921Z,25.61
2022-08-23T17:30:21.127Z,25.56
2022-08-23T17:32:49.629Z,25.54
2022-08-23T17:35:20.070Z,25.51
2022-08-23T17:37:48.749Z,25.46
2022-08-23T17:40:21.275Z,25.40
2022-08-23T17:42:50.011Z,25.37
2022-08-23T17:45:18.966Z,25.31
2022-08-23T17:47:47.463Z,25.26
2022-08-23T17:50:16.873Z,25.20
2022-08-23T17:52:45.160Z,25.17
2022-08-23T17:55:17.043Z,25.15
2022-08-23T17:57:48.467Z,25.12
2022-08-23T18:00:20.012Z,25.07
2022-08-23T18:02:48.078Z,25.01
2022-08-23T18:05:16.921Z,24.96
2022-08-23T18:07:45.110Z,24.91
2022-08-23T18:10:14.025Z,24.88
2022-08-23T18:12:42.109Z,24.84
2022-08-23T18:15:12.728Z,24.79
2022-08-23T18:17:41.100Z,24.75
2022-08-23T18:20:11.180Z,24.70
2022-08-23T18:22:40.085Z,24.65
2022-08-23T18:25:10.416Z,24.60
2022-08-23T18:27:56.396Z,24.53
2022-08-23T18:30:26.043Z,24.49
2022-08-23T18:32:54.141Z,24.44
2022-08-23T18:35:22.494Z,24.40
2022-08-23T18:37:53.003Z,24.37
2022-08-23T18:40:21.212Z,24.33
2022-08-23T18:42:49.223Z,24.29
2022-08-23T18:45:17.284Z,24.27
2022-08-23T18:47:48.563Z,24.21
2022-08-23T18:50:17.958Z,24.17
2022-08-23T18:52:45.975Z,24.12
2022-08-23T18:55:14.950Z,24.08
2022-08-23T18:57:43.313Z,24.05
2022-08-23T19:00:12.710Z,24.02
2022-08-23T19:02:40.798Z,23.99
2022-08-23T19:05:10.760Z,23.95
2022-08-23T19:07:38.781Z,23.90
2022-08-23T19:10:07.911Z,23.88
2022-08-23T19:12:36.051Z,23.83
2022-08-23T19:15:04.904Z,23.78
2022-08-23T19:17:33.041Z,23.76
2022-08-23T19:20:01.011Z,23.71
2022-08-23T19:22:30.348Z,23.67
2022-08-23T19:24:58.466Z,23.64
2022-08-23T19:27:26.545Z,23.60
2022-08-23T19:29:54.643Z,23.58
2022-08-23T19:35:31.237Z,23.48
2022-08-23T19:38:03.044Z,23.44
2022-08-23T19:40:31.880Z,23.39
2022-08-23T19:43:22.160Z,23.35
2022-08-23T19:45:51.981Z,23.33
2022-08-23T19:48:23.820Z,23.29
2022-08-23T19:50:53.606Z,23.24
2022-08-23T19:53:41.426Z,23.18
2022-08-23T19:56:11.381Z,23.15
2022-08-23T19:58:39.430Z,23.10
2022-08-23T20:01:09.098Z,23.04
2022-08-23T20:03:42.810Z,22.98
2022-08-23T20:06:18.899Z,22.94
2022-08-23T20:09:14.086Z,22.88
2022-08-23T20:11:42.881Z,22.82
2022-08-23T20:14:14.093Z,22.79
2022-08-23T20:16:50.456Z,22.75
2022-08-23T20:19:40.743Z,22.71
2022-08-23T20:22:30.783Z,22.67
2022-08-23T20:25:00.369Z,22.59
2022-08-23T20:27:30.765Z,22.54
2022-08-23T20:29:59.865Z,22.49
2022-08-23T20:32:28.474Z,22.45
2022-08-23T20:34:56.809Z,22.42
2022-08-23T20:37:25.873Z,22.40
2022-08-23T20:39:55.171Z,22.36
2022-08-23T20:42:31.799Z,22.32
2022-08-23T20:45:00.547Z,22.26
2022-08-23T20:47:28.840Z,22.25
2022-08-23T20:49:57.541Z,22.23
2022-08-23T20:52:25.695Z,22.21
2022-08-23T20:54:54.302Z,22.20
2022-08-23T20:57:22.959Z,22.19
2022-08-23T20:59:53.355Z,22.15
2022-08-23T21:02:22.279Z,22.12
2022-08-23T21:04:57.125Z,22.07
2022-08-23T21:07:26.998Z,22.04
2022-08-23T21:09:56.990Z,22.02
2022-08-23T21:12:26.570Z,22.00
2022-08-23T21:14:58.143Z,21.94
2022-08-23T21:17:27.037Z,21.90
2022-08-23T21:19:56.216Z,21.88
2022-08-23T21:22:32.267Z,21.84
2022-08-23T21:25:00.774Z,21.82
2022-08-23T21:27:37.631Z,21.80
2022-08-23T21:30:08.647Z,21.77
2022-08-23T21:32:37.144Z,21.74
2022-08-23T21:35:06.373Z,21.71
2022-08-23T21:37:35.965Z,21.69
2022-08-23T21:40:06.127Z,21.67
2022-08-23T21:42:35.351Z,21.65
2022-08-23T21:45:06.203Z,21.61
2022-08-23T21:47:37.851Z,21.60
2022-08-23T21:50:07.403Z,21.57
2022-08-23T21:52:36.892Z,21.55
2022-08-23T21:55:06.797Z,21.53
2022-08-23T21:57:36.036Z,21.50
2022-08-23T22:00:07.708Z,21.45
2022-08-23T22:02:44.681Z,21.42
2022-08-23T22:05:13.777Z,21.39
2022-08-23T22:07:42.757Z,21.37
2022-08-23T22:10:11.481Z,21.33
2022-08-23T22:12:40.317Z,21.29
2022-08-23T22:15:09.366Z,21.26
2022-08-23T22:17:38.767Z,21.23
2022-08-23T22:20:12.914Z,21.20
2022-08-23T22:22:44.378Z,21.20
2022-08-23T22:25:13.706Z,21.19
2022-08-23T22:27:42.258Z,21.17
2022-08-23T22:30:12.345Z,21.15
2022-08-23T22:32:44.266Z,21.14
2022-08-23T22:35:16.631Z,21.10
2022-08-23T22:38:10.270Z,21.04
2022-08-23T22:40:35.835Z,20.98
2022-08-23T22:43:03.879Z,20.92
2022-08-23T22:45:31.866Z,20.89
2022-08-23T22:48:00.264Z,20.84
2022-08-23T22:50:29.640Z,20.79
2022-08-23T22:52:57.904Z,20.76
2022-08-23T22:55:26.528Z,20.72
2022-08-23T22:57:54.694Z,20.71
2022-08-23T23:00:26.264Z,20.69
2022-08-23T23:02:57.555Z,20.69
2022-08-23T23:05:27.174Z,20.68
2022-08-23T23:08:15.839Z,20.68
2022-08-23T23:10:43.973Z,20.67
2022-08-23T23:13:11.883Z,20.63
2022-08-23T23:15:40.362Z,20.61
2022-08-23T23:18:08.966Z,20.59
2022-08-23T23:20:39.375Z,20.56
2022-08-23T23:23:10.417Z,20.54
2022-08-23T23:25:41.721Z,20.54
2022-08-23T23:28:09.883Z,20.51
2022-08-23T23:30:38.585Z,20.50
2022-08-23T23:33:07.760Z,20.49
2022-08-23T23:35:36.853Z,20.49
2022-08-23T23:38:05.308Z,20.47
2022-08-23T23:40:35.818Z,20.45
2022-08-23T23:43:05.461Z,20.43
2022-08-23T23:45:34.173Z,20.42
2022-08-23T23:48:02.596Z,20.41
2022-08-23T23:50:32.082Z,20.40
2022-08-23T23:53:02.600Z,20.37
2022-08-23T23:55:30.635Z,20.34
2022-08-23T23:58:00.482Z,20.31
